Time;durP1;ratioP1;P1;durP2;ratioP2;P2;SDS_P1;SDS_P2;PMS_P1;PMS_P2;Temp;Humidity;BMP_temperature;BMP_pressure;BME280_temperature;BME280_humidity;BME280_pressure;Samples;Min_cycle;Max_cycle;Signal;HPM_P1;HPM_P2
2021/01/30 00:00:28;;;;;;;1.10;0.70;;;7.20;48.30;;;;;;5108993;28;20216;-73
2021/01/30 00:02:54;;;;;;;1.10;0.60;;;7.20;48.50;;;;;;5113484;28;20430;-73
2021/01/30 00:05:19;;;;;;;1.20;0.80;;;7.10;48.50;;;;;;5113641;28;20457;-73
2021/01/30 00:07:45;;;;;;;1.10;0.70;;;7.20;49.10;;;;;;5113639;28;20414;-73
2021/01/30 00:10:12;;;;;;;1.40;0.87;;;7.10;48.10;;;;;;5099102;28;20189;-73
2021/01/30 00:12:38;;;;;;;1.00;0.57;;;7.10;48.40;;;;;;5092889;28;20221;-74
2021/01/30 00:15:05;;;;;;;1.63;0.60;;;7.20;48.20;;;;;;5093389;28;20422;-73
2021/01/30 00:17:30;;;;;;;1.40;0.80;;;7.20;47.60;;;;;;5093304;28;20192;-73
2021/01/30 00:19:56;;;;;;;1.10;0.60;;;7.10;47.40;;;;;;5103445;28;20434;-73
2021/01/30 00:22:21;;;;;;;0.90;0.50;;;7.10;47.60;;;;;;5113500;28;20204;-73
2021/01/30 00:24:50;;;;;;;1.37;1.03;;;7.10;48.10;;;;;;5113239;28;20207;-73
2021/01/30 00:27:19;;;;;;;1.10;0.60;;;7.10;47.50;;;;;;5113418;28;20177;-73
2021/01/30 00:29:45;;;;;;;1.20;0.60;;;7.20;47.00;;;;;;5102965;28;20430;-75
2021/01/30 00:32:12;;;;;;;1.17;0.60;;;7.20;46.40;;;;;;5093040;28;20432;-74
2021/01/30 00:34:39;;;;;;;1.20;0.70;;;7.20;46.00;;;;;;5093124;28;20403;-73
2021/01/30 00:37:13;;;;;;;1.93;0.93;;;7.20;45.20;;;;;;5092992;28;20411;-73
2021/01/30 00:39:39;;;;;;;2.03;0.77;;;7.20;44.10;;;;;;5112438;28;20409;-73
2021/01/30 00:42:06;;;;;;;2.27;0.80;;;7.20;43.70;;;;;;5111999;28;20786;-73
2021/01/30 00:44:31;;;;;;;2.13;1.20;;;7.20;43.40;;;;;;5112886;28;20460;-73
2021/01/30 00:46:58;;;;;;;1.87;0.77;;;7.20;42.60;;;;;;5113714;28;20418;-75
2021/01/30 00:49:24;;;;;;;1.33;0.70;;;7.20;42.00;;;;;;5094360;28;20178;-74
2021/01/30 00:51:50;;;;;;;2.57;1.13;;;7.10;42.30;;;;;;5093042;28;20458;-73
2021/01/30 00:54:16;;;;;;;1.50;0.70;;;7.10;42.70;;;;;;5093062;28;20447;-74
2021/01/30 00:56:41;;;;;;;1.63;0.90;;;7.10;42.00;;;;;;5102333;28;20865;-74
2021/01/30 00:59:09;;;;;;;1.43;0.63;;;7.10;42.10;;;;;;5112246;28;20176;-75
2021/01/30 01:01:39;;;;;;;1.20;0.80;;;7.10;42.60;;;;;;5094304;28;20187;-73
2021/01/30 01:04:05;;;;;;;1.63;0.77;;;7.10;42.40;;;;;;5112560;28;20449;-73
2021/01/30 01:06:32;;;;;;;1.10;0.60;;;7.10;42.90;;;;;;5104202;28;20423;-74
2021/01/30 01:08:57;;;;;;;1.47;0.70;;;7.10;42.90;;;;;;5091325;28;20418;-74
2021/01/30 01:11:23;;;;;;;1.33;0.97;;;7.20;43.60;;;;;;5092065;28;20490;-73
2021/01/30 01:13:49;;;;;;;2.50;0.80;;;7.20;43.80;;;;;;5073852;28;20475;-73
2021/01/30 01:16:15;;;;;;;2.20;0.90;;;7.20;44.40;;;;;;5097198;28;20176;-73
2021/01/30 01:18:41;;;;;;;1.93;0.60;;;7.20;44.50;;;;;;5112093;28;20536;-73
2021/01/30 01:21:06;;;;;;;1.67;1.00;;;7.10;44.90;;;;;;5111679;28;20403;-72
2021/01/30 01:23:32;;;;;;;1.20;0.80;;;7.10;44.90;;;;;;5112019;28;20192;-73
2021/01/30 01:25:57;;;;;;;1.20;0.70;;;7.00;45.10;;;;;;5095512;28;20226;-73
2021/01/30 01:28:23;;;;;;;2.77;0.67;;;7.00;44.90;;;;;;5091995;28;20515;-74
2021/01/30 01:30:48;;;;;;;1.20;0.60;;;7.00;45.30;;;;;;5090817;28;20177;-73
2021/01/30 01:33:14;;;;;;;1.57;0.77;;;7.00;45.50;;;;;;5091649;28;20197;-73
2021/01/30 01:35:39;;;;;;;1.10;0.53;;;7.00;45.60;;;;;;5104947;28;20188;-73
2021/01/30 01:38:05;;;;;;;1.30;0.70;;;7.00;46.20;;;;;;5111777;28;20545;-75
2021/01/30 01:40:38;;;;;;;1.30;0.60;;;7.00;46.20;;;;;;5111228;28;20179;-73
2021/01/30 01:43:07;;;;;;;2.27;0.90;;;6.90;46.80;;;;;;5106008;28;20257;-73
2021/01/30 01:45:33;;;;;;;1.03;0.40;;;6.90;47.10;;;;;;5091461;28;20466;-73
2021/01/30 01:48:05;;;;;;;1.30;0.53;;;6.90;47.30;;;;;;5092040;28;20415;-73
2021/01/30 01:50:41;;;;;;;1.00;0.50;;;6.90;47.30;;;;;;5090932;28;20174;-73
2021/01/30 01:53:24;;;;;;;1.20;0.47;;;6.90;47.60;;;;;;5110662;28;20474;-74
2021/01/30 01:55:58;;;;;;;2.23;0.80;;;7.00;47.60;;;;;;5112108;28;20411;-74
2021/01/30 01:58:25;;;;;;;1.20;0.60;;;7.00;47.70;;;;;;5093788;28;20421;-73
2021/01/30 02:00:52;;;;;;;2.63;0.50;;;6.90;48.10;;;;;;5110531;28;20919;-73
2021/01/30 02:03:19;;;;;;;1.30;0.50;;;6.90;48.50;;;;;;5091238;28;20438;-73
2021/01/30 02:05:45;;;;;;;1.27;0.70;;;6.90;49.30;;;;;;5091261;28;20466;-74
2021/01/30 02:08:15;;;;;;;1.33;1.03;;;6.90;48.90;;;;;;5091190;28;20761;-74
2021/01/30 02:10:50;;;;;;;1.10;0.67;;;6.80;48.90;;;;;;5090583;28;20399;-73
2021/01/30 02:13:40;;;;;;;0.90;0.50;;;6.70;48.90;;;;;;5110468;28;20460;-73
2021/01/30 02:16:14;;;;;;;1.40;0.70;;;6.60;48.80;;;;;;5110438;28;20509;-73
2021/01/30 02:18:55;;;;;;;3.20;1.13;;;6.50;49.40;;;;;;5111737;28;20407;-74
2021/01/30 02:21:45;;;;;;;2.07;0.77;;;6.40;49.30;;;;;;5089456;28;20423;-73
2021/01/30 02:24:52;;;;;;;1.30;0.70;;;6.30;50.30;;;;;;5090983;28;20863;-75
2021/01/30 02:27:33;;;;;;;1.53;0.70;;;6.40;50.20;;;;;;5072945;28;20430;-73
2021/01/30 02:30:17;;;;;;;2.07;0.70;;;6.40;50.00;;;;;;5090314;28;20403;-75
2021/01/30 02:33:01;;;;;;;1.43;0.60;;;6.40;50.20;;;;;;5105651;28;20442;-74
2021/01/30 02:36:14;;;;;;;1.80;1.00;;;6.50;50.00;;;;;;5111273;28;20914;-73
2021/01/30 02:38:46;;;;;;;1.70;0.63;;;6.50;49.40;;;;;;5085553;28;20427;-73
2021/01/30 02:41:21;;;;;;;2.23;0.80;;;6.60;49.50;;;;;;5111172;28;20409;-74
2021/01/30 02:43:49;;;;;;;1.13;0.60;;;6.60;47.80;;;;;;5110950;28;20406;-73
2021/01/30 02:46:21;;;;;;;1.67;0.70;;;6.50;47.40;;;;;;5111262;28;20406;-73
2021/01/30 02:48:51;;;;;;;1.10;0.70;;;6.50;47.00;;;;;;5110375;28;20765;-75
2021/01/30 02:51:24;;;;;;;1.73;0.67;;;6.50;47.40;;;;;;5090882;28;20856;-73
2021/01/30 02:53:53;;;;;;;1.27;0.80;;;6.50;47.60;;;;;;5090705;28;20419;-74
2021/01/30 02:56:20;;;;;;;1.30;0.60;;;6.50;47.60;;;;;;5090583;28;20414;-72
2021/01/30 02:58:53;;;;;;;1.43;0.50;;;6.60;47.50;;;;;;5089749;28;20488;-74
2021/01/30 03:01:19;;;;;;;1.87;0.80;;;6.60;47.60;;;;;;5111288;28;20778;-75
2021/01/30 03:03:45;;;;;;;1.20;0.70;;;6.60;47.50;;;;;;5110563;28;20434;-73
2021/01/30 03:06:55;;;;;;;1.30;0.70;;;6.70;47.70;;;;;;5114571;28;20418;-73
2021/01/30 03:09:26;;;;;;;1.40;0.70;;;6.70;48.40;;;;;;5095337;28;20449;-74
2021/01/30 03:12:00;;;;;;;1.50;0.80;;;6.70;47.50;;;;;;5095601;28;20465;-73
2021/01/30 03:14:28;;;;;;;1.10;0.70;;;6.70;47.40;;;;;;5094496;28;20414;-73
2021/01/30 03:16:59;;;;;;;1.27;1.00;;;6.60;47.50;;;;;;5094938;28;20529;-73
2021/01/30 03:19:28;;;;;;;1.10;0.60;;;6.60;47.50;;;;;;5093991;28;20449;-73
2021/01/30 03:22:01;;;;;;;2.30;0.70;;;6.60;47.00;;;;;;5110596;28;20517;-73
2021/01/30 03:24:28;;;;;;;1.33;0.67;;;6.70;46.40;;;;;;5115511;28;20449;-74
2021/01/30 03:26:54;;;;;;;1.53;0.57;;;6.70;45.80;;;;;;5115518;28;20442;-73
2021/01/30 03:29:20;;;;;;;1.80;0.93;;;6.70;45.80;;;;;;5114815;28;20422;-73
2021/01/30 03:31:46;;;;;;;1.40;0.80;;;6.70;46.20;;;;;;5103794;28;20208;-73
2021/01/30 03:34:14;;;;;;;2.33;0.90;;;6.70;46.00;;;;;;5095314;28;20205;-74
2021/01/30 03:36:40;;;;;;;1.10;0.50;;;6.70;45.90;;;;;;5095617;28;20415;-73
2021/01/30 03:39:08;;;;;;;1.00;0.50;;;6.70;45.60;;;;;;5094533;28;20955;-73
2021/01/30 03:41:34;;;;;;;1.40;0.73;;;6.80;44.80;;;;;;5085310;28;20480;-73
2021/01/30 03:43:59;;;;;;;1.23;0.40;;;6.80;44.70;;;;;;5115071;28;20839;-73
2021/01/30 03:46:25;;;;;;;1.97;0.50;;;6.80;44.10;;;;;;5115721;28;20227;-71
2021/01/30 03:48:51;;;;;;;2.33;0.70;;;6.80;44.30;;;;;;5115184;28;20527;-72
2021/01/30 03:51:16;;;;;;;1.23;0.70;;;6.80;44.20;;;;;;5109069;28;20541;-73
2021/01/30 03:53:42;;;;;;;2.00;0.83;;;6.80;43.90;;;;;;5094665;28;20197;-73
2021/01/30 03:56:09;;;;;;;1.10;0.53;;;6.80;43.50;;;;;;5094116;28;20176;-73
2021/01/30 03:58:39;;;;;;;3.53;0.80;;;6.90;43.20;;;;;;5075690;28;20548;-73
2021/01/30 04:01:06;;;;;;;1.67;0.70;;;6.80;43.10;;;;;;5097324;28;20414;-73
2021/01/30 04:03:32;;;;;;;2.00;0.60;;;6.80;42.90;;;;;;5114316;28;20931;-73
2021/01/30 04:05:57;;;;;;;1.60;1.00;;;6.80;42.80;;;;;;5114051;28;20453;-73
2021/01/30 04:08:23;;;;;;;1.93;0.97;;;6.80;42.30;;;;;;5113949;28;21007;-73
2021/01/30 04:10:48;;;;;;;1.37;0.60;;;6.90;42.70;;;;;;5111246;28;20206;-73
2021/01/30 04:13:14;;;;;;;1.97;0.90;;;6.90;42.00;;;;;;5093210;28;20243;-73
2021/01/30 04:15:42;;;;;;;1.70;0.80;;;6.90;42.10;;;;;;5092254;28;20197;-73
2021/01/30 04:18:08;;;;;;;1.30;0.80;;;6.90;42.10;;;;;;5093037;28;20200;-73
2021/01/30 04:20:34;;;;;;;1.30;0.77;;;6.90;41.60;;;;;;5105541;28;20529;-72
2021/01/30 04:23:00;;;;;;;1.73;0.80;;;6.90;41.50;;;;;;5113240;28;20992;-73
2021/01/30 04:25:26;;;;;;;1.70;0.70;;;6.90;41.70;;;;;;5113287;28;20688;-74
2021/01/30 04:27:52;;;;;;;1.63;0.87;;;7.00;42.00;;;;;;5113105;28;20168;-73
2021/01/30 04:30:21;;;;;;;4.50;0.80;;;7.00;41.40;;;;;;5101197;28;20427;-72
2021/01/30 04:32:47;;;;;;;2.27;1.10;;;7.00;40.60;;;;;;5092567;28;20434;-73
2021/01/30 04:35:14;;;;;;;2.80;1.10;;;7.00;41.10;;;;;;5092559;28;20896;-73
2021/01/30 04:37:40;;;;;;;2.70;1.17;;;6.90;41.00;;;;;;5074164;28;20267;-73
2021/01/30 04:40:08;;;;;;;1.40;0.70;;;6.90;41.30;;;;;;5100410;28;20514;-72
2021/01/30 04:42:39;;;;;;;1.40;0.97;;;6.80;41.80;;;;;;5112490;28;20192;-74
2021/01/30 04:45:19;;;;;;;1.30;0.87;;;6.80;42.00;;;;;;5112675;28;20446;-72
2021/01/30 04:47:52;;;;;;;2.80;1.37;;;6.90;41.90;;;;;;5112747;28;20497;-73
2021/01/30 04:50:43;;;;;;;1.13;0.60;;;6.90;41.60;;;;;;5103293;28;20427;-73
2021/01/30 04:53:34;;;;;;;1.53;0.90;;;6.80;41.40;;;;;;5092668;28;20436;-73
2021/01/30 04:56:16;;;;;;;1.87;0.87;;;6.80;41.20;;;;;;5092015;28;20415;-73
2021/01/30 04:59:11;;;;;;;2.53;1.10;;;6.80;40.80;;;;;;5091969;28;20931;-72
2021/01/30 05:01:45;;;;;;;2.77;1.40;;;6.80;40.60;;;;;;5092017;28;20469;-72
2021/01/30 05:04:26;;;;;;;15.07;2.10;;;6.80;40.40;;;;;;5092122;28;21019;-72
2021/01/30 05:07:06;;;;;;;2.00;1.37;;;6.80;39.70;;;;;;5091878;28;20407;-73
2021/01/30 05:09:46;;;;;;;6.23;2.47;;;6.70;40.20;;;;;;5094383;28;20444;-72
2021/01/30 05:12:52;;;;;;;10.33;1.40;;;6.70;40.00;;;;;;5110677;28;20458;-74
2021/01/30 05:15:30;;;;;;;4.17;1.80;;;6.70;39.90;;;;;;5113868;28;20419;-74
2021/01/30 05:18:13;;;;;;;4.03;1.20;;;6.70;39.90;;;;;;5113516;28;20409;-72
2021/01/30 05:20:46;;;;;;;2.00;1.00;;;6.70;39.50;;;;;;5109013;28;20510;-73
2021/01/30 05:23:13;;;;;;;2.00;1.17;;;6.70;39.50;;;;;;5093524;28;20427;-73
2021/01/30 05:25:38;;;;;;;4.57;1.60;;;6.70;39.50;;;;;;5093016;28;20459;-72
2021/01/30 05:28:23;;;;;;;1.63;0.90;;;6.70;39.50;;;;;;5092961;28;20430;-72
2021/01/30 05:31:11;;;;;;;3.40;1.53;;;6.60;39.40;;;;;;5110380;28;20187;-73
2021/01/30 05:34:07;;;;;;;4.67;1.37;;;6.60;39.40;;;;;;5095251;28;21001;-72
2021/01/30 05:36:45;;;;;;;3.20;1.50;;;6.50;39.30;;;;;;5113182;28;20410;-72
2021/01/30 05:39:23;;;;;;;3.37;2.00;;;6.50;39.40;;;;;;5109051;28;20427;-74
2021/01/30 05:42:04;;;;;;;4.73;1.73;;;6.50;39.60;;;;;;5092888;28;20459;-72
2021/01/30 05:44:40;;;;;;;5.00;1.80;;;6.40;39.70;;;;;;5092539;28;20462;-73
2021/01/30 05:47:12;;;;;;;6.70;1.87;;;6.50;39.70;;;;;;5093029;28;20411;-73
2021/01/30 05:49:47;;;;;;;3.20;1.80;;;6.50;39.30;;;;;;5094299;28;20422;-73
2021/01/30 05:52:20;;;;;;;12.63;2.27;;;6.50;39.30;;;;;;5112420;28;21007;-73
2021/01/30 05:54:45;;;;;;;3.30;1.53;;;6.50;39.30;;;;;;5112770;28;20403;-73
2021/01/30 05:57:14;;;;;;;2.50;1.37;;;6.50;39.30;;;;;;5112033;28;20413;-72
2021/01/30 05:59:46;;;;;;;4.70;1.77;;;6.50;39.30;;;;;;5091756;28;20314;-73
2021/01/30 06:02:20;;;;;;;3.47;2.10;;;6.50;39.30;;;;;;5092375;28;20447;-72
2021/01/30 06:04:46;;;;;;;2.53;1.40;;;6.50;39.30;;;;;;5092636;28;20549;-74
2021/01/30 06:07:32;;;;;;;4.47;1.77;;;6.40;39.30;;;;;;5093384;28;20407;-74
2021/01/30 06:10:16;;;;;;;8.53;1.60;;;6.50;39.30;;;;;;5112531;28;20428;-73
2021/01/30 06:12:42;;;;;;;8.20;2.07;;;6.50;39.30;;;;;;5094689;28;20923;-72
2021/01/30 06:15:15;;;;;;;4.70;1.90;;;6.50;39.20;;;;;;5112696;28;20414;-72
2021/01/30 06:17:41;;;;;;;5.03;1.50;;;6.50;39.20;;;;;;5094910;28;20203;-73
2021/01/30 06:20:15;;;;;;;4.30;1.83;;;6.50;38.70;;;;;;5092311;28;20498;-73
2021/01/30 06:22:41;;;;;;;4.23;1.97;;;6.50;38.40;;;;;;5092508;28;20442;-73
2021/01/30 06:25:26;;;;;;;2.33;1.40;;;6.50;38.20;;;;;;5074271;28;20462;-73
2021/01/30 06:27:57;;;;;;;5.83;2.20;;;6.50;38.10;;;;;;5093603;28;20924;-73
2021/01/30 06:30:37;;;;;;;6.40;2.03;;;6.50;38.20;;;;;;5091930;28;20427;-74
2021/01/30 06:33:15;;;;;;;6.97;1.90;;;6.50;38.10;;;;;;5091758;28;20795;-73
2021/01/30 06:35:41;;;;;;;3.10;1.80;;;6.60;38.10;;;;;;5092598;28;20409;-73
2021/01/30 06:38:26;;;;;;;8.00;2.27;;;6.60;38.10;;;;;;5092323;28;20427;-72
2021/01/30 06:40:58;;;;;;;3.53;2.13;;;6.60;38.30;;;;;;5095056;28;20239;-73
2021/01/30 06:43:32;;;;;;;4.73;1.87;;;6.60;38.30;;;;;;5096127;28;20484;-73
2021/01/30 06:46:05;;;;;;;8.40;2.27;;;6.60;38.40;;;;;;5098675;28;20499;-72
2021/01/30 06:48:41;;;;;;;5.00;1.90;;;6.60;38.10;;;;;;5114607;28;20410;-73
2021/01/30 06:51:24;;;;;;;4.90;2.00;;;6.60;38.20;;;;;;5115074;28;20174;-71
2021/01/30 06:53:50;;;;;;;9.43;2.20;;;6.70;37.90;;;;;;5115915;28;20410;-73
2021/01/30 06:56:32;;;;;;;3.63;1.87;;;6.70;38.00;;;;;;5110959;28;20506;-74
2021/01/30 06:59:07;;;;;;;6.23;2.47;;;6.70;38.10;;;;;;5096431;28;20431;-73
2021/01/30 07:01:42;;;;;;;4.93;2.53;;;6.60;38.10;;;;;;5095809;28;20418;-73
2021/01/30 07:04:22;;;;;;;5.73;2.53;;;6.60;38.10;;;;;;5094552;28;20458;-73
2021/01/30 07:06:56;;;;;;;6.70;2.40;;;6.70;39.00;;;;;;5095936;28;20453;-73
2021/01/30 07:09:36;;;;;;;5.43;3.00;;;6.70;38.10;;;;;;5104064;28;20806;-74
2021/01/30 07:12:11;;;;;;;3.90;1.83;;;6.70;38.30;;;;;;5095520;28;20487;-73
2021/01/30 07:14:49;;;;;;;6.10;2.67;;;6.70;37.90;;;;;;5095954;28;20407;-73
2021/01/30 07:17:33;;;;;;;3.57;2.30;;;6.80;37.80;;;;;;5097379;28;20911;-73
2021/01/30 07:20:34;;;;;;;8.27;2.37;;;6.80;37.70;;;;;;5115768;28;20417;-72
2021/01/30 07:23:18;;;;;;;15.13;2.57;;;6.80;37.40;;;;;;5084728;28;20838;-73
2021/01/30 07:26:14;;;;;;;4.60;2.53;;;6.80;37.00;;;;;;5097635;28;20477;-73
2021/01/30 07:28:53;;;;;;;4.60;2.73;;;6.90;37.20;;;;;;5116546;28;20515;-73
2021/01/30 07:31:54;;;;;;;5.47;2.20;;;6.90;37.30;;;;;;5116347;28;20501;-75
2021/01/30 07:34:26;;;;;;;2.70;2.17;;;6.90;36.90;;;;;;5013080;28;20437;-74
2021/01/30 07:37:07;;;;;;;12.33;3.40;;;6.90;36.50;;;;;;5103114;28;20463;-74
2021/01/30 07:39:49;;;;;;;4.50;2.07;;;7.00;36.10;;;;;;5094324;28;20450;-74
2021/01/30 07:42:24;;;;;;;4.00;2.20;;;7.00;36.40;;;;;;5095826;28;20432;-74
2021/01/30 07:45:07;;;;;;;6.13;2.67;;;7.00;36.20;;;;;;5106902;28;20457;-74
2021/01/30 07:47:45;;;;;;;5.77;2.40;;;7.00;35.80;;;;;;5116865;28;20881;-74
2021/01/30 07:50:26;;;;;;;5.77;2.23;;;7.10;35.50;;;;;;5116617;28;20438;-75
2021/01/30 07:53:16;;;;;;;8.77;2.20;;;7.10;35.40;;;;;;5117406;28;20438;-73
2021/01/30 07:56:12;;;;;;;5.27;2.17;;;7.20;34.80;;;;;;5099864;28;20963;-73
2021/01/30 07:58:55;;;;;;;5.10;2.90;;;7.20;34.80;;;;;;5093611;28;20422;-74
2021/01/30 08:01:46;;;;;;;4.27;2.97;;;7.30;34.90;;;;;;5093135;28;20403;-74
2021/01/30 08:04:48;;;;;;;6.70;2.37;;;7.30;34.40;;;;;;5094806;28;20996;-74
2021/01/30 08:07:45;;;;;;;5.93;3.10;;;7.40;33.80;;;;;;5093053;28;20423;-74
2021/01/30 08:10:39;;;;;;;7.77;3.27;;;7.50;32.90;;;;;;5091944;28;20494;-72
2021/01/30 08:13:11;;;;;;;4.97;1.97;;;7.60;32.30;;;;;;5080725;28;20537;-71
2021/01/30 08:15:48;;;;;;;4.33;2.20;;;7.70;32.40;;;;;;5114165;28;20438;-77
2021/01/30 08:18:36;;;;;;;5.70;2.53;;;7.80;32.30;;;;;;5115404;28;20417;-75
2021/01/30 08:21:30;;;;;;;6.40;2.90;;;7.90;32.40;;;;;;5115695;28;20512;-74
2021/01/30 08:24:12;;;;;;;5.67;3.13;;;7.90;31.20;;;;;;5102709;28;20437;-75
2021/01/30 08:26:50;;;;;;;5.20;2.37;;;7.90;31.60;;;;;;5103976;28;20427;-74
2021/01/30 08:29:41;;;;;;;6.00;2.60;;;7.90;31.60;;;;;;5115868;28;20399;-75
2021/01/30 08:32:24;;;;;;;7.20;3.40;;;7.80;31.30;;;;;;5115330;28;20430;-74
2021/01/30 08:34:55;;;;;;;3.20;2.50;;;7.80;31.60;;;;;;5115455;28;20450;-73
2021/01/30 08:37:20;;;;;;;5.83;3.50;;;7.80;31.80;;;;;;5114850;28;20431;-73
2021/01/30 08:40:01;;;;;;;7.80;3.10;;;7.80;31.40;;;;;;5114586;28;20418;-74
2021/01/30 08:42:29;;;;;;;6.77;3.30;;;7.70;31.60;;;;;;5114427;28;20198;-72
2021/01/30 08:45:06;;;;;;;5.13;3.37;;;7.70;31.60;;;;;;5110085;28;20462;-73
2021/01/30 08:47:54;;;;;;;9.43;3.00;;;7.80;31.90;;;;;;5113399;28;20817;-74
2021/01/30 08:50:25;;;;;;;11.60;2.90;;;7.80;32.00;;;;;;5113989;28;20419;-75
2021/01/30 08:52:56;;;;;;;9.80;2.97;;;7.80;32.50;;;;;;5114693;28;20931;-74
2021/01/30 08:55:41;;;;;;;5.13;2.87;;;7.80;30.90;;;;;;5113296;28;20407;-74
2021/01/30 08:58:07;;;;;;;9.77;2.73;;;7.90;31.30;;;;;;5094033;28;20893;-73
2021/01/30 09:00:56;;;;;;;9.33;2.90;;;8.00;30.30;;;;;;5096075;28;20501;-73
2021/01/30 09:03:49;;;;;;;7.10;3.00;;;8.00;31.70;;;;;;5112662;28;20985;-74
2021/01/30 09:06:40;;;;;;;4.83;2.63;;;8.10;31.10;;;;;;5095848;28;20421;-74
2021/01/30 09:09:20;;;;;;;4.37;2.90;;;8.10;30.60;;;;;;5114474;28;20456;-74
2021/01/30 09:11:47;;;;;;;4.40;2.33;;;8.20;30.40;;;;;;5096767;28;20415;-74
2021/01/30 09:14:12;;;;;;;6.20;3.20;;;8.30;31.00;;;;;;5097612;28;20958;-74
2021/01/30 09:16:53;;;;;;;14.60;3.10;;;8.30;30.50;;;;;;5114182;28;20411;-75
2021/01/30 09:19:46;;;;;;;4.87;3.13;;;8.40;30.30;;;;;;5112474;28;20182;-74
2021/01/30 09:22:20;;;;;;;9.80;2.70;;;8.50;30.20;;;;;;5091673;28;20428;-74
2021/01/30 09:25:06;;;;;;;10.53;3.00;;;8.50;30.30;;;;;;5091550;28;21028;-74
2021/01/30 09:27:35;;;;;;;4.60;2.80;;;8.60;30.40;;;;;;5100851;28;20484;-73
2021/01/30 09:30:29;;;;;;;4.90;3.20;;;8.70;29.40;;;;;;5105850;28;20444;-76
2021/01/30 09:32:54;;;;;;;5.03;3.33;;;8.80;28.90;;;;;;5102636;28;20445;-74
2021/01/30 09:35:26;;;;;;;11.87;3.50;;;8.80;29.00;;;;;;5075768;28;20414;-73
2021/01/30 09:37:51;;;;;;;4.43;3.57;;;8.80;29.20;;;;;;5091729;28;20195;-74
2021/01/30 09:40:25;;;;;;;6.90;3.10;;;8.90;29.20;;;;;;5111101;28;20405;-74
2021/01/30 09:43:08;;;;;;;5.00;3.13;;;9.00;28.90;;;;;;5104411;28;20199;-75
2021/01/30 09:45:35;;;;;;;5.47;3.10;;;9.10;28.10;;;;;;5108523;28;20504;-73
2021/01/30 09:48:09;;;;;;;12.03;3.90;;;9.20;28.50;;;;;;5107453;28;20436;-74
2021/01/30 09:50:58;;;;;;;6.50;3.80;;;9.20;27.70;;;;;;5088726;28;20446;-73
2021/01/30 09:53:30;;;;;;;3.87;3.20;;;9.20;28.20;;;;;;5089017;28;20561;-72
2021/01/30 09:56:17;;;;;;;4.40;3.20;;;9.30;28.50;;;;;;5097552;28;20811;-73
2021/01/30 09:58:45;;;;;;;4.83;3.20;;;9.30;28.10;;;;;;5109473;28;20470;-74
2021/01/30 10:01:31;;;;;;;5.40;3.03;;;9.30;31.80;;;;;;5109689;28;20767;-73
2021/01/30 10:03:56;;;;;;;6.87;3.93;;;9.30;30.00;;;;;;5090610;28;20435;-73
2021/01/30 10:06:31;;;;;;;8.37;3.77;;;9.40;28.60;;;;;;5098243;28;20967;-74
2021/01/30 10:09:24;;;;;;;8.30;3.40;;;9.40;28.40;;;;;;5090669;28;20250;-73
2021/01/30 10:11:54;;;;;;;5.50;3.13;;;9.40;29.00;;;;;;5090724;28;20452;-74
2021/01/30 10:14:22;;;;;;;3.33;2.37;;;9.30;28.80;;;;;;5107617;28;20429;-74
2021/01/30 10:17:00;;;;;;;3.67;3.30;;;9.30;29.30;;;;;;5109119;28;20433;-74
2021/01/30 10:19:29;;;;;;;5.57;3.90;;;9.40;28.80;;;;;;5101485;28;20783;-74
2021/01/30 10:21:58;;;;;;;10.73;2.87;;;9.40;29.20;;;;;;5098720;28;20806;-75
2021/01/30 10:24:30;;;;;;;3.00;2.33;;;9.50;30.20;;;;;;5110473;28;20813;-74
2021/01/30 10:27:21;;;;;;;3.70;2.87;;;9.60;30.20;;;;;;5108623;28;20433;-74
2021/01/30 10:29:48;;;;;;;3.63;2.67;;;9.70;30.00;;;;;;5098845;28;20913;-74
2021/01/30 10:32:41;;;;;;;3.70;2.17;;;9.70;29.30;;;;;;5111646;28;20420;-73
2021/01/30 10:35:18;;;;;;;3.53;2.60;;;;;;;;;;5118596;28;20918;-74
2021/01/30 10:37:49;;;;;;;4.23;3.80;;;9.60;29.30;;;;;;5110410;28;20413;-74
2021/01/30 10:40:36;;;;;;;7.90;3.20;;;9.40;30.50;;;;;;5109408;28;20425;-74
2021/01/30 10:43:04;;;;;;;3.87;2.67;;;9.50;30.40;;;;;;5112409;28;20434;-72
2021/01/30 10:45:32;;;;;;;3.40;2.00;;;9.50;31.50;;;;;;5111890;28;20462;-73
2021/01/30 10:48:07;;;;;;;7.07;2.90;;;9.50;30.90;;;;;;5112647;28;20417;-73
2021/01/30 10:50:44;;;;;;;2.77;1.93;;;9.40;30.80;;;;;;5112866;28;20437;-74
2021/01/30 10:53:32;;;;;;;5.20;2.00;;;9.50;31.50;;;;;;5113685;28;20818;-74
2021/01/30 10:55:58;;;;;;;2.60;2.20;;;9.50;30.50;;;;;;5111309;28;20447;-74
2021/01/30 10:58:30;;;;;;;3.73;2.80;;;9.50;31.00;;;;;;5113218;28;20409;-73
2021/01/30 11:01:00;;;;;;;5.33;2.53;;;9.60;31.60;;;;;;5111418;28;20425;-72
2021/01/30 11:03:46;;;;;;;3.90;1.93;;;9.60;31.60;;;;;;5111607;28;20434;-72
2021/01/30 11:06:14;;;;;;;3.43;2.00;;;9.60;30.40;;;;;;5111986;28;20448;-74
2021/01/30 11:08:40;;;;;;;2.90;2.13;;;9.70;31.20;;;;;;5100499;28;20430;-72
2021/01/30 11:11:08;;;;;;;2.37;1.90;;;9.80;30.10;;;;;;5091385;28;20428;-73
2021/01/30 11:13:40;;;;;;;5.53;2.37;;;9.90;31.60;;;;;;5094639;28;20482;-73
2021/01/30 11:16:09;;;;;;;3.10;2.40;;;9.90;30.90;;;;;;5098530;28;20414;-75
2021/01/30 11:18:39;;;;;;;2.90;2.13;;;9.90;30.70;;;;;;5109376;28;20444;-75
2021/01/30 11:21:10;;;;;;;3.17;2.07;;;9.80;30.40;;;;;;5119588;28;20413;-76
2021/01/30 11:23:50;;;;;;;3.20;1.67;;;9.60;31.60;;;;;;5120814;28;20734;-75
2021/01/30 11:26:30;;;;;;;4.20;1.90;;;9.50;32.50;;;;;;5122709;28;20828;-73
2021/01/30 11:28:57;;;;;;;3.37;2.37;;;9.40;33.10;;;;;;5121117;28;20501;-74
2021/01/30 11:31:23;;;;;;;1.93;1.30;;;9.30;33.50;;;;;;5119597;28;20426;-74
2021/01/30 11:33:53;;;;;;;2.40;1.87;;;9.40;33.20;;;;;;5122820;28;20508;-75
2021/01/30 11:36:19;;;;;;;5.93;3.93;;;9.40;34.20;;;;;;5120726;28;20476;-75
2021/01/30 11:38:55;;;;;;;4.37;3.97;;;9.50;35.30;;;;;;5121017;28;20409;-75
2021/01/30 11:41:21;;;;;;;4.93;4.37;;;9.50;34.40;;;;;;5123547;28;20432;-75
2021/01/30 11:43:46;;;;;;;3.43;2.90;;;9.50;34.50;;;;;;5104383;28;20812;-75
2021/01/30 11:46:12;;;;;;;3.50;3.00;;;9.60;32.80;;;;;;5106327;28;20217;-74
2021/01/30 11:48:37;;;;;;;4.20;3.63;;;9.60;32.90;;;;;;5105550;28;20208;-73
2021/01/30 11:51:03;;;;;;;4.33;2.43;;;9.70;32.40;;;;;;5104972;28;20528;-73
2021/01/30 11:53:30;;;;;;;3.30;2.07;;;9.60;32.20;;;;;;5114389;28;20199;-72
2021/01/30 11:55:57;;;;;;;5.57;3.27;;;9.60;33.30;;;;;;5125622;28;20172;-74
2021/01/30 11:58:23;;;;;;;13.63;2.40;;;9.70;33.60;;;;;;5125964;28;20415;-73
2021/01/30 12:00:50;;;;;;;5.13;2.40;;;9.70;33.20;;;;;;5123735;28;20421;-74
2021/01/30 12:03:23;;;;;;;9.20;3.37;;;9.70;33.70;;;;;;5104721;28;21022;-73
2021/01/30 12:05:49;;;;;;;4.00;3.40;;;9.60;33.50;;;;;;5102354;28;20446;-75
2021/01/30 12:08:15;;;;;;;3.73;3.03;;;9.40;33.30;;;;;;5102728;28;20482;-75
2021/01/30 12:10:41;;;;;;;2.67;2.40;;;9.30;33.50;;;;;;5102545;28;20415;-74
2021/01/30 12:13:06;;;;;;;5.83;3.30;;;9.20;33.40;;;;;;5121129;28;20279;-76
2021/01/30 12:15:33;;;;;;;8.07;4.27;;;9.20;33.80;;;;;;5122612;28;20172;-76
2021/01/30 12:17:59;;;;;;;2.97;2.30;;;9.20;33.70;;;;;;5123070;28;20270;-76
2021/01/30 12:20:27;;;;;;;5.57;2.63;;;9.20;32.80;;;;;;5121656;28;20448;-74
2021/01/30 12:22:55;;;;;;;6.63;3.07;;;9.00;33.50;;;;;;5122155;28;20664;-74
2021/01/30 12:25:21;;;;;;;2.10;1.80;;;8.90;34.80;;;;;;5102284;28;20540;-75
2021/01/30 12:27:52;;;;;;;3.43;2.23;;;8.90;34.00;;;;;;5102739;28;20426;-74
2021/01/30 12:30:20;;;;;;;4.40;2.40;;;8.80;34.40;;;;;;5102744;28;20176;-73
2021/01/30 12:32:46;;;;;;;6.27;1.80;;;8.80;34.70;;;;;;5119638;28;20471;-72
2021/01/30 12:35:14;;;;;;;3.20;1.53;;;8.80;34.70;;;;;;5119087;28;20447;-73
2021/01/30 12:37:40;;;;;;;3.77;1.67;;;8.80;35.20;;;;;;5122004;28;20508;-75
2021/01/30 12:40:06;;;;;;;2.17;1.50;;;8.80;36.10;;;;;;5122849;28;20930;-74
2021/01/30 12:42:32;;;;;;;3.53;2.10;;;8.70;35.70;;;;;;5118917;28;20248;-74
2021/01/30 12:44:58;;;;;;;2.90;1.63;;;8.70;35.50;;;;;;5124370;28;20456;-73
2021/01/30 12:47:25;;;;;;;3.70;1.70;;;8.70;36.00;;;;;;5123840;28;20415;-73
2021/01/30 12:49:51;;;;;;;2.63;1.50;;;8.70;35.10;;;;;;5122005;28;20172;-74
2021/01/30 12:52:17;;;;;;;4.97;2.30;;;8.60;35.30;;;;;;5121445;28;20450;-72
2021/01/30 12:54:42;;;;;;;2.90;2.17;;;8.70;36.00;;;;;;5122659;28;20214;-74
2021/01/30 12:57:08;;;;;;;3.60;2.40;;;8.60;36.80;;;;;;5123695;28;20186;-72
2021/01/30 12:59:33;;;;;;;11.43;3.00;;;8.50;36.80;;;;;;5122366;28;20174;-73
2021/01/30 13:01:59;;;;;;;2.50;1.93;;;8.50;37.30;;;;;;5110740;28;20246;-73
2021/01/30 13:04:25;;;;;;;4.37;2.20;;;8.50;37.60;;;;;;5102596;28;20202;-75
2021/01/30 13:06:50;;;;;;;5.20;3.20;;;8.50;36.90;;;;;;5099389;28;20184;-75
2021/01/30 13:09:20;;;;;;;5.23;3.23;;;8.50;37.50;;;;;;5098540;28;20557;-74
2021/01/30 13:11:46;;;;;;;4.20;1.70;;;8.50;38.40;;;;;;5100102;28;20195;-75
2021/01/30 13:14:12;;;;;;;6.93;2.80;;;8.50;38.00;;;;;;5110675;28;20438;-76
2021/01/30 13:16:37;;;;;;;9.00;3.13;;;8.50;38.90;;;;;;5120433;28;20429;-75
2021/01/30 13:19:03;;;;;;;4.00;2.53;;;8.40;39.90;;;;;;5108108;28;20210;-74
2021/01/30 13:21:28;;;;;;;2.63;1.73;;;8.30;39.00;;;;;;5112335;28;20192;-76
2021/01/30 13:23:54;;;;;;;1.90;1.40;;;8.30;38.40;;;;;;5120069;28;20173;-77
2021/01/30 13:26:19;;;;;;;2.33;2.00;;;8.20;36.60;;;;;;5112462;28;20210;-73
2021/01/30 13:28:45;;;;;;;7.50;2.03;;;8.10;37.80;;;;;;5116550;28;20190;-71